Morgan Reinauer — WCA3764 — position and weather

sailwx.info

Track history (hours):
 
Tides and Currents Weather Stations Pressure Air Temp Water Temp Dewpoint Dewpoint Depression Visibility Wind Speed Wind Dir Waves Ship Positions

Morgan Reinauer

Owner: REINAUER, HAROLD A, STATEN ISLAND, NY. More information available from US FCC via Universal Licensing System and Coast Guard Vessel Documentation Center.

Last reported at 2018-Jun-19 01:48 UTC. Time now 2018-Jun-20 20:38 UTC.
Position N 40°48' W 073°51'.

Length 158 m; draft 6 m.

Type: . MMSI: 366516380.

Date/timePositionNaut miles runAvg speedWind from/ knotsBaromVisibWave heightAir tempDewpointWater temp
2018-Jun-19 01:48N 40°48' W 073°51'4 7.9
2018-Jun-19 01:19N 40°47' W 073°56'3 8.8
2018-Jun-19 01:00N 40°45' W 073°58'4 7.2
2018-Jun-19 00:30N 40°41' W 074°00'4 7.1
2018-Jun-19 00:00N 40°39' W 074°04'4 7.9
2018-Jun-18 23:27N 40°39' W 074°10'3 5.9
2018-Jun-18 22:59N 40°37' W 074°12'5 0.4
2018-Jun-18 11:57N 40°33' W 074°15'0 0.0
2018-Jun-18 10:54N 40°33' W 074°15'0 0.0
2018-Jun-18 10:09N 40°33' W 074°15'0 0.0
2018-Jun-18 09:59N 40°33' W 074°15'0 0.4
2018-Jun-18 09:29N 40°33' W 074°15'0 0.6
2018-Jun-18 08:59N 40°33' W 074°15'0 0.0
2018-Jun-18 08:29N 40°33' W 074°15'0 0.0
2018-Jun-18 07:56N 40°33' W 074°15'0 0.0
2018-Jun-18 07:26N 40°33' W 074°15'0 0.0
2018-Jun-18 06:50N 40°33' W 074°15'5 0.4
2018-Jun-17 17:41N 40°37' W 074°12'2 8.7
2018-Jun-17 17:29N 40°39' W 074°11'3 6.9
2018-Jun-17 17:00N 40°39' W 074°07'0 0.0
2018-Jun-17 16:30N 40°39' W 074°07'0 0.0
2018-Jun-17 16:00N 40°39' W 074°07'0 0.0
2018-Jun-17 15:24N 40°39' W 074°07'0 0.6
2018-Jun-17 14:59N 40°39' W 074°07'1 1.1
2018-Jun-17 14:17N 40°38' W 074°08'0 0.0
2018-Jun-17 13:54N 40°38' W 074°08'0 0.0
2018-Jun-17 13:27N 40°38' W 074°08'0 0.0
2018-Jun-17 12:57N 40°38' W 074°08'1 2.4
2018-Jun-17 12:30N 40°39' W 074°09'4 7.7
2018-Jun-17 12:00N 40°36' W 074°12'4 4.4
2018-Jun-17 11:08N 40°33' W 074°15'0 0.3
2018-Jun-17 10:59N 40°33' W 074°15'3 6.1
2018-Jun-17 10:31N 40°35' W 074°13'4 7.8
2018-Jun-17 09:59N 40°39' W 074°11'4 8.5
2018-Jun-17 09:30N 40°39' W 074°06'3 5.7
2018-Jun-17 09:00N 40°40' W 074°02'0 0.1
2018-Jun-17 08:29N 40°40' W 074°03'0 0.0
2018-Jun-17 07:59N 40°40' W 074°03'0 0.0
2018-Jun-17 07:29N 40°40' W 074°03'0 0.0
2018-Jun-17 06:59N 40°40' W 074°03'0 0.0
2018-Jun-17 06:29N 40°40' W 074°03'0 0.3
2018-Jun-17 05:59N 40°40' W 074°03'0 0.3
2018-Jun-17 05:29N 40°40' W 074°02'0 0.0
2018-Jun-17 04:59N 40°40' W 074°02'0 0.0
2018-Jun-17 04:29N 40°40' W 074°02'0 0.0
2018-Jun-17 03:56N 40°40' W 074°02'0 0.0
2018-Jun-17 03:29N 40°40' W 074°02'0 0.0
2018-Jun-17 02:59N 40°40' W 074°02'0 0.0
2018-Jun-17 02:29N 40°40' W 074°02'0 0.0
2018-Jun-17 01:59N 40°40' W 074°02'0 0.0
2018-Jun-17 01:29N 40°40' W 074°02'0 0.0
2018-Jun-17 00:59N 40°40' W 074°02'0 0.1
2018-Jun-17 00:30N 40°40' W 074°02'3 5.8
2018-Jun-17 00:00N 40°42' W 073°60'3 6.5
2018-Jun-16 23:30N 40°45' W 073°58'50 8.8
2018-Jun-16 17:52N 41°06' W 072°59'410.0
2018-Jun-16 17:30N 41°07' W 072°54'510.2
2018-Jun-16 17:00N 41°08' W 072°47'510.4
2018-Jun-16 16:30N 41°09' W 072°41'510.9
2018-Jun-16 16:00N 41°10' W 072°33'611.4
2018-Jun-16 15:30N 41°11' W 072°26'611.9
2018-Jun-16 15:00N 41°12' W 072°18'611.5
2018-Jun-16 14:30N 41°14' W 072°11'39 9.1
2018-Jun-16 10:15N 41°27' W 071°23'3 8.2
2018-Jun-16 09:56N 41°30' W 071°21'4 9.7
2018-Jun-16 09:30N 41°34' W 071°19'510.1
2018-Jun-16 09:00N 41°39' W 071°18'5 9.4
2018-Jun-16 08:30N 41°43' W 071°21'4 8.6
2018-Jun-16 08:00N 41°47' W 071°23'1 0.1
2018-Jun-15 13:52N 41°48' W 071°24'1 2.6
2018-Jun-15 13:27N 41°47' W 071°23'4 8.0
2018-Jun-15 12:57N 41°43' W 071°21'47 7.7
2018-Jun-15 06:55N 41°14' W 072°10'511.1
2018-Jun-15 06:30N 41°13' W 072°16'511.1
2018-Jun-15 06:00N 41°12' W 072°23'710.3
2018-Jun-15 05:17N 41°10' W 072°32'3 9.8
2018-Jun-15 05:00N 41°09' W 072°36'5 9.0
2018-Jun-15 04:30N 41°09' W 072°42'5 8.5
2018-Jun-15 03:51N 41°08' W 072°49'50 8.2
2018-Jun-14 21:45N 40°48' W 073°50'3 9.0
2018-Jun-14 21:27N 40°48' W 073°53'4 6.8
2018-Jun-14 20:53N 40°46' W 073°57'3 7.0
2018-Jun-14 20:30N 40°43' W 073°58'3 6.3
2018-Jun-14 20:00N 40°41' W 074°01'3 6.4
2018-Jun-14 19:30N 40°39' W 074°04'2 3.2
2018-Jun-14 19:01N 40°39' W 074°07'0 0.0
2018-Jun-14 18:21N 40°39' W 074°07'0 0.0
2018-Jun-14 18:00N 40°39' W 074°07'0 0.0
2018-Jun-14 17:27N 40°39' W 074°07'0 0.0
2018-Jun-14 16:09N 40°39' W 074°07'0 0.0
2018-Jun-14 15:54N 40°39' W 074°07'0 0.0
2018-Jun-14 15:30N 40°39' W 074°07'0 0.0
2018-Jun-14 15:00N 40°39' W 074°07'0 0.0
2018-Jun-14 14:30N 40°39' W 074°07'0 0.0
2018-Jun-14 13:57N 40°39' W 074°07'0 0.0
2018-Jun-14 13:30N 40°39' W 074°07'0 0.0
2018-Jun-14 13:00N 40°39' W 074°07'0 0.0
2018-Jun-14 12:30N 40°39' W 074°07'0 0.0
2018-Jun-14 11:54N 40°39' W 074°07'0 0.0
2018-Jun-14 11:30N 40°39' W 074°07'0 0.0
2018-Jun-14 11:00N 40°39' W 074°07'0 0.0
2018-Jun-14 10:27N 40°39' W 074°07'0 0.0
2018-Jun-14 10:00N 40°39' W 074°07'0 0.0
2018-Jun-14 09:30N 40°39' W 074°07'0 0.0
2018-Jun-14 09:00N 40°39' W 074°07'0 0.0
2018-Jun-14 08:30N 40°39' W 074°07'0 0.0
2018-Jun-14 08:00N 40°39' W 074°07'0 0.0
2018-Jun-14 07:30N 40°39' W 074°07'0 0.0
2018-Jun-14 07:00N 40°39' W 074°07'0 0.0
2018-Jun-14 06:30N 40°39' W 074°07'0 0.0
2018-Jun-14 06:00N 40°39' W 074°07'0 0.0
2018-Jun-14 05:30N 40°39' W 074°07'0 0.0
2018-Jun-14 05:00N 40°39' W 074°07'0 0.0
2018-Jun-14 04:30N 40°39' W 074°07'0 0.0
2018-Jun-14 04:00N 40°39' W 074°07'0 0.0
2018-Jun-14 03:30N 40°39' W 074°07'0 0.0
2018-Jun-14 03:00N 40°39' W 074°07'0 0.0
2018-Jun-14 02:30N 40°39' W 074°07'0 0.0
2018-Jun-14 02:00N 40°39' W 074°07'0 0.0
2018-Jun-14 01:30N 40°39' W 074°07'0 0.0
2018-Jun-14 01:00N 40°39' W 074°07'0 0.0
2018-Jun-14 00:30N 40°39' W 074°07'0 0.0
2018-Jun-13 23:57N 40°39' W 074°07'0 0.0
2018-Jun-13 23:30N 40°39' W 074°07'0 0.0
2018-Jun-13 22:54N 40°39' W 074°07'0 0.0
2018-Jun-13 22:27N 40°39' W 074°07'0 0.0
2018-Jun-13 22:00N 40°39' W 074°07'0 0.0
2018-Jun-13 21:24N 40°39' W 074°07'0 0.0
2018-Jun-13 20:48N 40°39' W 074°07'0 1.4
2018-Jun-13 20:30N 40°39' W 074°07'1 1.1
2018-Jun-13 19:54N 40°38' W 074°08'0 0.0
2018-Jun-13 19:30N 40°38' W 074°08'1 1.9
2018-Jun-13 19:00N 40°39' W 074°07'0 0.2
2018-Jun-13 18:30N 40°39' W 074°07'3 5.3
2018-Jun-13 18:00N 40°40' W 074°03'0 0.7
2018-Jun-13 17:30N 40°40' W 074°03'0 0.0
2018-Jun-13 17:01N 40°40' W 074°03'0 0.1
2018-Jun-13 16:28N 40°40' W 074°03'0 0.0
2018-Jun-13 15:57N 40°40' W 074°03'0 0.3
2018-Jun-13 15:30N 40°40' W 074°03'0 0.2
2018-Jun-13 14:58N 40°40' W 074°03'0 0.0
2018-Jun-13 14:28N 40°40' W 074°03'0 0.0
2018-Jun-13 14:01N 40°40' W 074°03'0 0.0
2018-Jun-13 13:31N 40°40' W 074°03'0 0.0
2018-Jun-13 13:00N 40°40' W 074°03'0 0.0
2018-Jun-13 12:31N 40°40' W 074°03'0 0.0
2018-Jun-13 12:00N 40°40' W 074°03'0 0.0
2018-Jun-13 11:31N 40°40' W 074°03'0 0.0
2018-Jun-13 11:00N 40°40' W 074°03'0 0.1
2018-Jun-13 10:28N 40°40' W 074°03'0 0.0
2018-Jun-13 10:00N 40°40' W 074°03'0 0.0
2018-Jun-13 09:27N 40°40' W 074°03'0 0.2
2018-Jun-13 09:00N 40°40' W 074°03'0 0.3
2018-Jun-13 08:30N 40°40' W 074°03'0 0.0
2018-Jun-13 08:00N 40°40' W 074°03'0 0.1
2018-Jun-13 07:30N 40°40' W 074°03'0 0.0
2018-Jun-13 07:00N 40°40' W 074°03'0 0.0
2018-Jun-13 06:30N 40°40' W 074°03'0 0.0
2018-Jun-13 06:00N 40°40' W 074°03'0 0.0
2018-Jun-13 05:30N 40°40' W 074°03'0 0.0
2018-Jun-13 05:00N 40°40' W 074°03'0 0.0
2018-Jun-13 04:30N 40°40' W 074°03'0 0.0
2018-Jun-13 04:00N 40°40' W 074°03'0 0.3
2018-Jun-13 03:30N 40°40' W 074°03'0 0.1
2018-Jun-13 03:00N 40°40' W 074°03'0 0.1
2018-Jun-13 02:30N 40°40' W 074°03'0 0.0
2018-Jun-13 02:00N 40°40' W 074°03'0 0.0
2018-Jun-13 01:30N 40°40' W 074°03'0 0.0
2018-Jun-13 01:00N 40°40' W 074°03'0 0.0
2018-Jun-13 00:30N 40°40' W 074°03'0 0.0
2018-Jun-13 00:00N 40°40' W 074°03'0 0.0
2018-Jun-12 23:30N 40°40' W 074°03'0 0.0
2018-Jun-12 22:57N 40°40' W 074°03'0 0.0
2018-Jun-12 22:30N 40°40' W 074°03'0 0.0
2018-Jun-12 21:57N 40°40' W 074°03'0 0.0
2018-Jun-12 21:30N 40°40' W 074°03'0 0.0
2018-Jun-12 21:00N 40°40' W 074°03'0 0.0
2018-Jun-12 20:30N 40°40' W 074°03'0 0.2
2018-Jun-12 20:00N 40°40' W 074°03'0 0.1
2018-Jun-12 19:30N 40°40' W 074°03'0 0.1
2018-Jun-12 19:00N 40°40' W 074°03'0 0.0
2018-Jun-12 18:30N 40°40' W 074°03'0 0.1
2018-Jun-12 18:00N 40°40' W 074°03'0 0.0
2018-Jun-12 17:30N 40°40' W 074°03'0 0.0
2018-Jun-12 17:00N 40°40' W 074°03'0 0.0
2018-Jun-12 16:30N 40°40' W 074°03'0 0.0
2018-Jun-12 16:00N 40°40' W 074°03'0 0.0
2018-Jun-12 15:30N 40°40' W 074°03'1 2.2
2018-Jun-12 15:01N 40°40' W 074°02'0 0.9
2018-Jun-12 14:30N 40°40' W 074°01'0 0.0
2018-Jun-12 14:00N 40°40' W 074°01'0 0.0
2018-Jun-12 13:30N 40°40' W 074°01'0 0.0
2018-Jun-12 13:00N 40°40' W 074°01'1 2.4
2018-Jun-12 12:30N 40°40' W 074°03'0 0.0
2018-Jun-12 12:01N 40°40' W 074°03'0 0.0
2018-Jun-12 11:30N 40°40' W 074°03'0 0.0
2018-Jun-12 10:55N 40°40' W 074°03'0 0.0
2018-Jun-12 10:25N 40°40' W 074°03'0 0.0
2018-Jun-12 09:55N 40°40' W 074°03'0 0.1
2018-Jun-12 09:13N 40°40' W 074°02'0 0.1
2018-Jun-12 07:33N 40°40' W 074°03'0 0.1
2018-Jun-12 07:25N 40°40' W 074°03'0 0.0
2018-Jun-12 06:46N 40°40' W 074°03'0 0.0
2018-Jun-12 05:52N 40°40' W 074°03'0 0.0
2018-Jun-12 05:30N 40°40' W 074°03'0 0.0
2018-Jun-12 00:06N 40°40' W 074°03'0 0.0
2018-Jun-12 00:00N 40°40' W 074°03'0 0.0
2018-Jun-11 15:00N 40°40' W 074°03'0 0.1
2018-Jun-11 13:06N 40°40' W 074°03'0 0.1
2018-Jun-11 11:19N 40°40' W 074°02'0 0.0
2018-Jun-11 10:57N 40°40' W 074°03'1 1.9
2018-Jun-11 10:30N 40°41' W 074°02'4 6.6
2018-Jun-11 09:58N 40°43' W 073°58'3 0.1
2018-Jun-10 05:06N 40°46' W 073°57'0 5.0
2018-Jun-10 05:00N 40°45' W 073°57'3 5.4
2018-Jun-10 04:31N 40°43' W 073°58'3 6.7
2018-Jun-10 04:01N 40°41' W 074°02'3 5.3
2018-Jun-10 03:30N 40°38' W 074°03'0 1.0
2018-Jun-10 03:01N 40°38' W 074°04'0 0.0
2018-Jun-10 02:31N 40°38' W 074°04'0 0.1
2018-Jun-10 02:01N 40°38' W 074°04'0 0.0
2018-Jun-10 01:30N 40°38' W 074°04'0 0.1
2018-Jun-10 01:00N 40°38' W 074°04'0 0.2
2018-Jun-10 00:30N 40°38' W 074°04'0 0.3
2018-Jun-10 00:01N 40°38' W 074°04'3 6.8
2018-Jun-09 23:31N 40°39' W 074°08'  
Track history (hours):
 
Tides and Currents Weather Stations Pressure Air Temp Water Temp Dewpoint Dewpoint Depression Visibility Wind Speed Wind Dir Waves Ship Positions

Morgan Reinauer

Owner: REINAUER, HAROLD A, STATEN ISLAND, NY. More information available from US FCC via Universal Licensing System and Coast Guard Vessel Documentation Center.

Last reported at 2018-Jun-19 01:48 UTC. Time now 2018-Jun-20 20:38 UTC.
Position N 40°48' W 073°51'.

Length 158 m; draft 6 m.

Type: . MMSI: 366516380.

Date/timePositionNaut miles runAvg speedWind from/ knotsBaromVisibWave heightAir tempDewpointWater temp
2018-Jun-19 01:48N 40°48' W 073°51'4 7.9
2018-Jun-19 01:19N 40°47' W 073°56'3 8.8
2018-Jun-19 01:00N 40°45' W 073°58'4 7.2
2018-Jun-19 00:30N 40°41' W 074°00'4 7.1
2018-Jun-19 00:00N 40°39' W 074°04'4 7.9
2018-Jun-18 23:27N 40°39' W 074°10'3 5.9
2018-Jun-18 22:59N 40°37' W 074°12'5 0.4
2018-Jun-18 11:57N 40°33' W 074°15'0 0.0
2018-Jun-18 10:54N 40°33' W 074°15'0 0.0
2018-Jun-18 10:09N 40°33' W 074°15'0 0.0
2018-Jun-18 09:59N 40°33' W 074°15'0 0.4
2018-Jun-18 09:29N 40°33' W 074°15'0 0.6
2018-Jun-18 08:59N 40°33' W 074°15'0 0.0
2018-Jun-18 08:29N 40°33' W 074°15'0 0.0
2018-Jun-18 07:56N 40°33' W 074°15'0 0.0
2018-Jun-18 07:26N 40°33' W 074°15'0 0.0
2018-Jun-18 06:50N 40°33' W 074°15'5 0.4
2018-Jun-17 17:41N 40°37' W 074°12'2 8.7
2018-Jun-17 17:29N 40°39' W 074°11'3 6.9
2018-Jun-17 17:00N 40°39' W 074°07'0 0.0
2018-Jun-17 16:30N 40°39' W 074°07'0 0.0
2018-Jun-17 16:00N 40°39' W 074°07'0 0.0
2018-Jun-17 15:24N 40°39' W 074°07'0 0.6
2018-Jun-17 14:59N 40°39' W 074°07'1 1.1
2018-Jun-17 14:17N 40°38' W 074°08'0 0.0
2018-Jun-17 13:54N 40°38' W 074°08'0 0.0
2018-Jun-17 13:27N 40°38' W 074°08'0 0.0
2018-Jun-17 12:57N 40°38' W 074°08'1 2.4
2018-Jun-17 12:30N 40°39' W 074°09'4 7.7
2018-Jun-17 12:00N 40°36' W 074°12'4 4.4
2018-Jun-17 11:08N 40°33' W 074°15'0 0.3
2018-Jun-17 10:59N 40°33' W 074°15'3 6.1
2018-Jun-17 10:31N 40°35' W 074°13'4 7.8
2018-Jun-17 09:59N 40°39' W 074°11'4 8.5
2018-Jun-17 09:30N 40°39' W 074°06'3 5.7
2018-Jun-17 09:00N 40°40' W 074°02'0 0.1
2018-Jun-17 08:29N 40°40' W 074°03'0 0.0
2018-Jun-17 07:59N 40°40' W 074°03'0 0.0
2018-Jun-17 07:29N 40°40' W 074°03'0 0.0
2018-Jun-17 06:59N 40°40' W 074°03'0 0.0
2018-Jun-17 06:29N 40°40' W 074°03'0 0.3
2018-Jun-17 05:59N 40°40' W 074°03'0 0.3
2018-Jun-17 05:29N 40°40' W 074°02'0 0.0
2018-Jun-17 04:59N 40°40' W 074°02'0 0.0
2018-Jun-17 04:29N 40°40' W 074°02'0 0.0
2018-Jun-17 03:56N 40°40' W 074°02'0 0.0
2018-Jun-17 03:29N 40°40' W 074°02'0 0.0
2018-Jun-17 02:59N 40°40' W 074°02'0 0.0
2018-Jun-17 02:29N 40°40' W 074°02'0 0.0
2018-Jun-17 01:59N 40°40' W 074°02'0 0.0
2018-Jun-17 01:29N 40°40' W 074°02'0 0.0
2018-Jun-17 00:59N 40°40' W 074°02'0 0.1
2018-Jun-17 00:30N 40°40' W 074°02'3 5.8
2018-Jun-17 00:00N 40°42' W 073°60'3 6.5
2018-Jun-16 23:30N 40°45' W 073°58'50 8.8
2018-Jun-16 17:52N 41°06' W 072°59'410.0
2018-Jun-16 17:30N 41°07' W 072°54'510.2
2018-Jun-16 17:00N 41°08' W 072°47'510.4
2018-Jun-16 16:30N 41°09' W 072°41'510.9
2018-Jun-16 16:00N 41°10' W 072°33'611.4
2018-Jun-16 15:30N 41°11' W 072°26'611.9
2018-Jun-16 15:00N 41°12' W 072°18'611.5
2018-Jun-16 14:30N 41°14' W 072°11'39 9.1
2018-Jun-16 10:15N 41°27' W 071°23'3 8.2
2018-Jun-16 09:56N 41°30' W 071°21'4 9.7
2018-Jun-16 09:30N 41°34' W 071°19'510.1
2018-Jun-16 09:00N 41°39' W 071°18'5 9.4
2018-Jun-16 08:30N 41°43' W 071°21'4 8.6
2018-Jun-16 08:00N 41°47' W 071°23'1 0.1
2018-Jun-15 13:52N 41°48' W 071°24'1 2.6
2018-Jun-15 13:27N 41°47' W 071°23'4 8.0
2018-Jun-15 12:57N 41°43' W 071°21'47 7.7
2018-Jun-15 06:55N 41°14' W 072°10'511.1
2018-Jun-15 06:30N 41°13' W 072°16'511.1
2018-Jun-15 06:00N 41°12' W 072°23'710.3
2018-Jun-15 05:17N 41°10' W 072°32'3 9.8
2018-Jun-15 05:00N 41°09' W 072°36'5 9.0
2018-Jun-15 04:30N 41°09' W 072°42'5 8.5
2018-Jun-15 03:51N 41°08' W 072°49'50 8.2
2018-Jun-14 21:45N 40°48' W 073°50'3 9.0
2018-Jun-14 21:27N 40°48' W 073°53'4 6.8
2018-Jun-14 20:53N 40°46' W 073°57'3 7.0
2018-Jun-14 20:30N 40°43' W 073°58'3 6.3
2018-Jun-14 20:00N 40°41' W 074°01'3 6.4
2018-Jun-14 19:30N 40°39' W 074°04'2 3.2
2018-Jun-14 19:01N 40°39' W 074°07'0 0.0
2018-Jun-14 18:21N 40°39' W 074°07'0 0.0
2018-Jun-14 18:00N 40°39' W 074°07'0 0.0
2018-Jun-14 17:27N 40°39' W 074°07'0 0.0
2018-Jun-14 16:09N 40°39' W 074°07'0 0.0
2018-Jun-14 15:54N 40°39' W 074°07'0 0.0
2018-Jun-14 15:30N 40°39' W 074°07'0 0.0
2018-Jun-14 15:00N 40°39' W 074°07'0 0.0
2018-Jun-14 14:30N 40°39' W 074°07'0 0.0
2018-Jun-14 13:57N 40°39' W 074°07'0 0.0
2018-Jun-14 13:30N 40°39' W 074°07'0 0.0
2018-Jun-14 13:00N 40°39' W 074°07'0 0.0
2018-Jun-14 12:30N 40°39' W 074°07'0 0.0
2018-Jun-14 11:54N 40°39' W 074°07'0 0.0
2018-Jun-14 11:30N 40°39' W 074°07'0 0.0
2018-Jun-14 11:00N 40°39' W 074°07'0 0.0
2018-Jun-14 10:27N 40°39' W 074°07'0 0.0
2018-Jun-14 10:00N 40°39' W 074°07'0 0.0
2018-Jun-14 09:30N 40°39' W 074°07'0 0.0
2018-Jun-14 09:00N 40°39' W 074°07'0 0.0
2018-Jun-14 08:30N 40°39' W 074°07'0 0.0
2018-Jun-14 08:00N 40°39' W 074°07'0 0.0
2018-Jun-14 07:30N 40°39' W 074°07'0 0.0
2018-Jun-14 07:00N 40°39' W 074°07'0 0.0
2018-Jun-14 06:30N 40°39' W 074°07'0 0.0
2018-Jun-14 06:00N 40°39' W 074°07'0 0.0
2018-Jun-14 05:30N 40°39' W 074°07'0 0.0
2018-Jun-14 05:00N 40°39' W 074°07'0 0.0
2018-Jun-14 04:30N 40°39' W 074°07'0 0.0
2018-Jun-14 04:00N 40°39' W 074°07'0 0.0
2018-Jun-14 03:30N 40°39' W 074°07'0 0.0
2018-Jun-14 03:00N 40°39' W 074°07'0 0.0
2018-Jun-14 02:30N 40°39' W 074°07'0 0.0
2018-Jun-14 02:00N 40°39' W 074°07'0 0.0
2018-Jun-14 01:30N 40°39' W 074°07'0 0.0
2018-Jun-14 01:00N 40°39' W 074°07'0 0.0
2018-Jun-14 00:30N 40°39' W 074°07'0 0.0
2018-Jun-13 23:57N 40°39' W 074°07'0 0.0
2018-Jun-13 23:30N 40°39' W 074°07'0 0.0
2018-Jun-13 22:54N 40°39' W 074°07'0 0.0
2018-Jun-13 22:27N 40°39' W 074°07'0 0.0
2018-Jun-13 22:00N 40°39' W 074°07'0 0.0
2018-Jun-13 21:24N 40°39' W 074°07'0 0.0
2018-Jun-13 20:48N 40°39' W 074°07'0 1.4
2018-Jun-13 20:30N 40°39' W 074°07'1 1.1
2018-Jun-13 19:54N 40°38' W 074°08'0 0.0
2018-Jun-13 19:30N 40°38' W 074°08'1 1.9
2018-Jun-13 19:00N 40°39' W 074°07'0 0.2
2018-Jun-13 18:30N 40°39' W 074°07'3 5.3
2018-Jun-13 18:00N 40°40' W 074°03'0 0.7
2018-Jun-13 17:30N 40°40' W 074°03'0 0.0
2018-Jun-13 17:01N 40°40' W 074°03'0 0.1
2018-Jun-13 16:28N 40°40' W 074°03'0 0.0
2018-Jun-13 15:57N 40°40' W 074°03'0 0.3
2018-Jun-13 15:30N 40°40' W 074°03'0 0.2
2018-Jun-13 14:58N 40°40' W 074°03'0 0.0
2018-Jun-13 14:28N 40°40' W 074°03'0 0.0
2018-Jun-13 14:01N 40°40' W 074°03'0 0.0
2018-Jun-13 13:31N 40°40' W 074°03'0 0.0
2018-Jun-13 13:00N 40°40' W 074°03'0 0.0
2018-Jun-13 12:31N 40°40' W 074°03'0 0.0
2018-Jun-13 12:00N 40°40' W 074°03'0 0.0
2018-Jun-13 11:31N 40°40' W 074°03'0 0.0
2018-Jun-13 11:00N 40°40' W 074°03'0 0.1
2018-Jun-13 10:28N 40°40' W 074°03'0 0.0
2018-Jun-13 10:00N 40°40' W 074°03'0 0.0
2018-Jun-13 09:27N 40°40' W 074°03'0 0.2
2018-Jun-13 09:00N 40°40' W 074°03'0 0.3
2018-Jun-13 08:30N 40°40' W 074°03'0 0.0
2018-Jun-13 08:00N 40°40' W 074°03'0 0.1
2018-Jun-13 07:30N 40°40' W 074°03'0 0.0
2018-Jun-13 07:00N 40°40' W 074°03'0 0.0
2018-Jun-13 06:30N 40°40' W 074°03'0 0.0
2018-Jun-13 06:00N 40°40' W 074°03'0 0.0
2018-Jun-13 05:30N 40°40' W 074°03'0 0.0
2018-Jun-13 05:00N 40°40' W 074°03'0 0.0
2018-Jun-13 04:30N 40°40' W 074°03'0 0.0
2018-Jun-13 04:00N 40°40' W 074°03'0 0.3
2018-Jun-13 03:30N 40°40' W 074°03'0 0.1
2018-Jun-13 03:00N 40°40' W 074°03'0 0.1
2018-Jun-13 02:30N 40°40' W 074°03'0 0.0
2018-Jun-13 02:00N 40°40' W 074°03'0 0.0
2018-Jun-13 01:30N 40°40' W 074°03'0 0.0
2018-Jun-13 01:00N 40°40' W 074°03'0 0.0
2018-Jun-13 00:30N 40°40' W 074°03'0 0.0
2018-Jun-13 00:00N 40°40' W 074°03'0 0.0
2018-Jun-12 23:30N 40°40' W 074°03'0 0.0
2018-Jun-12 22:57N 40°40' W 074°03'0 0.0
2018-Jun-12 22:30N 40°40' W 074°03'0 0.0
2018-Jun-12 21:57N 40°40' W 074°03'0 0.0
2018-Jun-12 21:30N 40°40' W 074°03'0 0.0
2018-Jun-12 21:00N 40°40' W 074°03'0 0.0
2018-Jun-12 20:30N 40°40' W 074°03'0 0.2
2018-Jun-12 20:00N 40°40' W 074°03'0 0.1
2018-Jun-12 19:30N 40°40' W 074°03'0 0.1
2018-Jun-12 19:00N 40°40' W 074°03'0 0.0
2018-Jun-12 18:30N 40°40' W 074°03'0 0.1
2018-Jun-12 18:00N 40°40' W 074°03'0 0.0
2018-Jun-12 17:30N 40°40' W 074°03'0 0.0
2018-Jun-12 17:00N 40°40' W 074°03'0 0.0
2018-Jun-12 16:30N 40°40' W 074°03'0 0.0
2018-Jun-12 16:00N 40°40' W 074°03'0 0.0
2018-Jun-12 15:30N 40°40' W 074°03'1 2.2
2018-Jun-12 15:01N 40°40' W 074°02'0 0.9
2018-Jun-12 14:30N 40°40' W 074°01'0 0.0
2018-Jun-12 14:00N 40°40' W 074°01'0 0.0
2018-Jun-12 13:30N 40°40' W 074°01'0 0.0
2018-Jun-12 13:00N 40°40' W 074°01'1 2.4
2018-Jun-12 12:30N 40°40' W 074°03'0 0.0
2018-Jun-12 12:01N 40°40' W 074°03'0 0.0
2018-Jun-12 11:30N 40°40' W 074°03'0 0.0
2018-Jun-12 10:55N 40°40' W 074°03'0 0.0
2018-Jun-12 10:25N 40°40' W 074°03'0 0.0
2018-Jun-12 09:55N 40°40' W 074°03'0 0.1
2018-Jun-12 09:13N 40°40' W 074°02'0 0.1
2018-Jun-12 07:33N 40°40' W 074°03'0 0.1
2018-Jun-12 07:25N 40°40' W 074°03'0 0.0
2018-Jun-12 06:46N 40°40' W 074°03'0 0.0
2018-Jun-12 05:52N 40°40' W 074°03'0 0.0
2018-Jun-12 05:30N 40°40' W 074°03'0 0.0
2018-Jun-12 00:06N 40°40' W 074°03'0 0.0
2018-Jun-12 00:00N 40°40' W 074°03'0 0.0
2018-Jun-11 15:00N 40°40' W 074°03'0 0.1
2018-Jun-11 13:06N 40°40' W 074°03'0 0.1
2018-Jun-11 11:19N 40°40' W 074°02'0 0.0
2018-Jun-11 10:57N 40°40' W 074°03'1 1.9
2018-Jun-11 10:30N 40°41' W 074°02'4 6.6
2018-Jun-11 09:58N 40°43' W 073°58'3 0.1
2018-Jun-10 05:06N 40°46' W 073°57'0 5.0
2018-Jun-10 05:00N 40°45' W 073°57'3 5.4
2018-Jun-10 04:31N 40°43' W 073°58'3 6.7
2018-Jun-10 04:01N 40°41' W 074°02'3 5.3
2018-Jun-10 03:30N 40°38' W 074°03'0 1.0
2018-Jun-10 03:01N 40°38' W 074°04'0 0.0
2018-Jun-10 02:31N 40°38' W 074°04'0 0.1
2018-Jun-10 02:01N 40°38' W 074°04'0 0.0
2018-Jun-10 01:30N 40°38' W 074°04'0 0.1
2018-Jun-10 01:00N 40°38' W 074°04'0 0.2
2018-Jun-10 00:30N 40°38' W 074°04'0 0.3
2018-Jun-10 00:01N 40°38' W 074°04'3 6.8
2018-Jun-09 23:31N 40°39' W 074°08'  

Dump ship's entire track history